Orange8 — JL6278 — position and weather

sailwx.info

Track history (hours):
 
Tides and Currents Weather Stations Pressure Air Temp Water Temp Dewpoint Dewpoint Depression Visibility Wind Speed Wind Dir Waves Ship Positions

Orange8

Last reported at 2016-Sep-27 19:32 UTC. Time now 2016-Sep-27 22:22 UTC.
Position N 34°37' E 134°58'.

Length 164 m; draft 5 m.

Type: Passenger vessel. MMSI: 431501603.

Date/timePositionNaut miles runAvg speedWind from/ knotsBaromVisibWave heightAir tempDewpointWater temp
2016-Sep-27 19:32N 34°37' E 134°58'18 0.6
2016-Sep-26 13:33N 34°36' E 135°19'6 2.8
2016-Sep-26 11:32N 34°37' E 135°26'0 0.0
2016-Sep-26 08:32N 34°37' E 135°26'0 0.0
2016-Sep-26 02:32N 34°37' E 135°26'0 0.0
2016-Sep-26 01:32N 34°37' E 135°26'0 0.0
2016-Sep-26 00:32N 34°37' E 135°26'0 0.0
2016-Sep-25 21:32N 34°37' E 135°26'23 0.7
2016-Sep-24 14:34N 34°37' E 134°58'2310.9
2016-Sep-24 12:26N 34°37' E 135°26'0 0.0
2016-Sep-24 10:26N 34°37' E 135°26'0 0.0
2016-Sep-24 09:32N 34°37' E 135°26'0 0.0
2016-Sep-24 03:32N 34°37' E 135°26'0 0.0
2016-Sep-24 02:32N 34°37' E 135°26'0 0.0
2016-Sep-24 01:32N 34°37' E 135°26'0 0.0
2016-Sep-24 00:32N 34°37' E 135°26'24 4.8
2016-Sep-23 19:33N 34°36' E 134°57'24 0.8
2016-Sep-22 12:31N 34°37' E 135°26'0 0.0
2016-Sep-22 04:31N 34°37' E 135°26'0 0.0
2016-Sep-22 03:31N 34°37' E 135°26'0 0.0
2016-Sep-22 00:31N 34°37' E 135°26'0 0.0
2016-Sep-21 23:31N 34°37' E 135°26'0 0.0
2016-Sep-21 22:25N 34°37' E 135°26'24 8.3
2016-Sep-21 19:33N 34°36' E 134°57'1 0.0
2016-Sep-20 14:33N 34°37' E 134°57'1818.2
2016-Sep-20 13:33N 34°37' E 135°19'6 1.9
2016-Sep-20 10:33N 34°37' E 135°26'11 5.5
2016-Sep-20 08:30N 34°31' E 135°15'0 0.1
2016-Sep-20 07:33N 34°31' E 135°14'0 0.1
2016-Sep-20 06:33N 34°31' E 135°15'0 0.0
2016-Sep-20 02:33N 34°31' E 135°14'9 3.2
2016-Sep-19 23:33N 34°38' E 135°22'19 4.7
2016-Sep-19 19:33N 34°37' E 134°59'4 0.2
2016-Sep-18 14:32N 34°36' E 134°54'26 5.2
2016-Sep-18 09:31N 34°37' E 135°26'0 0.0
2016-Sep-18 02:31N 34°37' E 135°26'0 0.0
2016-Sep-17 22:19N 34°37' E 135°26'0 0.0
2016-Sep-17 21:31N 34°37' E 135°26'5 4.9
2016-Sep-17 20:33N 34°36' E 135°20'  
Track history (hours):
 
Tides and Currents Weather Stations Pressure Air Temp Water Temp Dewpoint Dewpoint Depression Visibility Wind Speed Wind Dir Waves Ship Positions

Orange8

Last reported at 2016-Sep-27 19:32 UTC. Time now 2016-Sep-27 22:22 UTC.
Position N 34°37' E 134°58'.

Length 164 m; draft 5 m.

Type: Passenger vessel. MMSI: 431501603.

Date/timePositionNaut miles runAvg speedWind from/ knotsBaromVisibWave heightAir tempDewpointWater temp
2016-Sep-27 19:32N 34°37' E 134°58'18 0.6
2016-Sep-26 13:33N 34°36' E 135°19'6 2.8
2016-Sep-26 11:32N 34°37' E 135°26'0 0.0
2016-Sep-26 08:32N 34°37' E 135°26'0 0.0
2016-Sep-26 02:32N 34°37' E 135°26'0 0.0
2016-Sep-26 01:32N 34°37' E 135°26'0 0.0
2016-Sep-26 00:32N 34°37' E 135°26'0 0.0
2016-Sep-25 21:32N 34°37' E 135°26'23 0.7
2016-Sep-24 14:34N 34°37' E 134°58'2310.9
2016-Sep-24 12:26N 34°37' E 135°26'0 0.0
2016-Sep-24 10:26N 34°37' E 135°26'0 0.0
2016-Sep-24 09:32N 34°37' E 135°26'0 0.0
2016-Sep-24 03:32N 34°37' E 135°26'0 0.0
2016-Sep-24 02:32N 34°37' E 135°26'0 0.0
2016-Sep-24 01:32N 34°37' E 135°26'0 0.0
2016-Sep-24 00:32N 34°37' E 135°26'24 4.8
2016-Sep-23 19:33N 34°36' E 134°57'24 0.8
2016-Sep-22 12:31N 34°37' E 135°26'0 0.0
2016-Sep-22 04:31N 34°37' E 135°26'0 0.0
2016-Sep-22 03:31N 34°37' E 135°26'0 0.0
2016-Sep-22 00:31N 34°37' E 135°26'0 0.0
2016-Sep-21 23:31N 34°37' E 135°26'0 0.0
2016-Sep-21 22:25N 34°37' E 135°26'24 8.3
2016-Sep-21 19:33N 34°36' E 134°57'1 0.0
2016-Sep-20 14:33N 34°37' E 134°57'1818.2
2016-Sep-20 13:33N 34°37' E 135°19'6 1.9
2016-Sep-20 10:33N 34°37' E 135°26'11 5.5
2016-Sep-20 08:30N 34°31' E 135°15'0 0.1
2016-Sep-20 07:33N 34°31' E 135°14'0 0.1
2016-Sep-20 06:33N 34°31' E 135°15'0 0.0
2016-Sep-20 02:33N 34°31' E 135°14'9 3.2
2016-Sep-19 23:33N 34°38' E 135°22'19 4.7
2016-Sep-19 19:33N 34°37' E 134°59'4 0.2
2016-Sep-18 14:32N 34°36' E 134°54'26 5.2
2016-Sep-18 09:31N 34°37' E 135°26'0 0.0
2016-Sep-18 02:31N 34°37' E 135°26'0 0.0
2016-Sep-17 22:19N 34°37' E 135°26'0 0.0
2016-Sep-17 21:31N 34°37' E 135°26'5 4.9
2016-Sep-17 20:33N 34°36' E 135°20'  

Dump ship's entire track history